This is the latest recevied weather packets stored in our database for station/object KC3UTO. If no packets are shown the sender has not sent any weather packets the latest 10 day(s).
| Time | Temp. | Humidity | Pressure | Rain* | Wind** | Luminosity | Snow |
|---|---|---|---|---|---|---|---|
| 1777385645 | 13.33° C | 50% | 1020.8 hPa | 0 mm | - | 186 W/m² | - |
| 1777385343 | 13.89° C | 49% | 1021 hPa | 0 mm | - | 192 W/m² | - |
| 1777384736 | 13.89° C | 48% | 1020.8 hPa | 0 mm | - | 182 W/m² | - |
| 1777383828 | 13.89° C | 47% | 1020.9 hPa | 0 mm | - | 234 W/m² | - |
| 1777383524 | 13.89° C | 49% | 1020.9 hPa | 0 mm | - | 269 W/m² | - |
| 1777383220 | 13.89° C | 51% | 1021 hPa | 0 mm | - | 309 W/m² | - |
| 1777382917 | 13.89° C | 54% | 1020.9 hPa | 0 mm | - | 371 W/m² | - |
| 1777381705 | 12.78° C | 60% | 1021.1 hPa | 0 mm | - | 245 W/m² | - |
| 1777381401 | 12.78° C | 63% | 1020.8 hPa | 0 mm | - | 245 W/m² | - |
| 1777379276 | 11.67° C | 63% | 1021.1 hPa | 0 mm | - | 369 W/m² | - |
| 1777378666 | 10.56° C | 70% | 1021.2 hPa | 0 mm | - | 254 W/m² | - |
| 1777378058 | 9.44° C | 74% | 1020.9 hPa | 0 mm | - | 167 W/m² | - |
| 1777377758 | 9.44° C | 72% | 1021.3 hPa | 0 mm | - | 147 W/m² | - |
| 1777377150 | 10° C | 72% | 1021.2 hPa | 0 mm | - | 142 W/m² | - |
| 1777376240 | 7.22° C | 88% | 1021.5 hPa | 0 mm | - | 125 W/m² | - |
| 1777375323 | 5.56° C | 92% | 1021.4 hPa | 0 mm | - | 42 W/m² | - |
| 1777372588 | 3.33° C | 94% | 1021.4 hPa | 0 mm | - | 24 W/m² | - |
| 1777372288 | 3.33° C | 94% | 1021.1 hPa | 0 mm | - | 22 W/m² | - |
| 1777371986 | 3.33° C | 94% | 1021.4 hPa | 0 mm | - | 18 W/m² | - |
| 1777371683 | 3.33° C | 94% | 1021.2 hPa | 0 mm | - | 13 W/m² | - |
| 1777371379 | 3.33° C | 93% | 1021.2 hPa | 0 mm | - | 9 W/m² | - |
| 1777371076 | 3.33° C | 93% | 1021.3 hPa | 0 mm | - | 6 W/m² | - |
| 1777370772 | 3.33° C | 93% | 1021.1 hPa | 0 mm | - | 3 W/m² | - |
| 1777370469 | 3.33° C | 93% | 1020.8 hPa | 0 mm | - | 2 W/m² | - |
| 1777370168 | 3.33° C | 93% | 1021.1 hPa | 0 mm | - | 1 W/m² | - |
* Rain latest hour (hover to see other rain measurements)
** Current wind speed in m/s (hover to see current wind gust speed)